Lexington, Illinois
Current Conditions -  °F | °C
As of 11:56 PM on Saturday 20 Dec 2014 (Local Time) from KBMI Reporting Station
Overcast Overcast  
Wind Chill: 24°   Ceiling: 2700
Heat Index: 33°   Visibility: 9mi
Dew Point: 30°   Wind: 13mph
Humidity: 89%   Direction: 160°SSE
Pressure: 30.24"   Gusts: NA
Location:  40.64°N, 88.78°W
Report Text: KBMI 210556Z AUTO 16011KT 9SM OVC027 01/M01 A3024 RMK AO2 58004 T00051011 10005 20000 400111050 SLP255
Loading
Personal Weather Stations






























Interactive Weather Map New forecast layout! Learn more

10-Day Weather Forecast

Advertisements
Track Severe Weather on mobile